• Join FlightAware (Why Join?)
  • Login
  • US Flag 
07:15PM EST


 

Airport Tracker/Info


-or-


 

Live Flight TrackerFlight Track Log ✈ SWA1903 ✈ 13-May-2013 ✈ KORF - KBWI

Flight Track Log - Related Links

Times and Time Zones

All times are in EDT time to prevent confusion due to time zone crossing. See the SWA1903 flight status page for this flight to view local times or setup timezone preferences in your user account.

Time Position Orientation Groundspeed Altitude Reporting Facility
EDT Latitude Longitude Course Direction KTS MPH feet Rate Location/Type
06:05AM 36.9014 -76.1944 38° Northeast 140 161 900  Level Washington Center
06:05AM 36.9119 -76.1842 38° Northeast 140 161 2,100 2,160 Climbing Washington Center
06:06AM 36.9453 -76.1869 356° North 194 223 3,400 2,400 Climbing Washington Center
06:06AM 36.9536 -76.2106 294° West 227 261 4,600 3,060 Climbing Washington Center
06:07AM 36.9678 -76.2547 292° West 227 261 6,500 3,720 Climbing Washington Center
06:08AM 37.0031 -76.3253 302° West 227 261 11,000 4,020 Climbing Washington Center
06:09AM 37.0378 -76.4167 295° West 258 297 14,600 2,460 Climbing Washington Center
06:10AM 37.0767 -76.5108 297° West 285 328 16,000 660 Climbing Washington Center
06:11AM 37.1156 -76.6050 297° West 304 350 16,000  Level Washington Center
06:12AM 37.1944 -76.6608 331° Northwest 304 350 16,000  Level Washington Center
06:13AM 37.2839 -76.6933 344° North 304 350 16,000  Level Washington Center
06:14AM 37.3794 -76.7314 342° North 326 375 16,000  Level Washington Center
06:15AM 37.4667 -76.7667 342° North 326 375 16,000  Level Washington Center
06:16AM 37.5561 -76.7994 344° North 326 375 16,000  Level Washington Center
06:17AM 37.6433 -76.8375 341° North 326 375 16,100  Climbing Washington Center
06:18AM 37.7306 -76.8731 342° North 326 375 16,100  Level Washington Center
06:19AM 37.8178 -76.9089 342° North 326 375 16,100  Level Washington Center
06:20AM 37.9050 -76.9444 342° North 326 375 16,100  Level Washington Center
06:21AM 37.9922 -76.9778 343° North 326 375 16,100  Level Washington Center
06:22AM 38.0792 -77.0136 342° North 326 375 16,100  Level Washington Center
06:23AM 38.1644 -77.0469 343° North 326 375 16,100  Level Washington Center
06:24AM 38.2433 -77.0803 342° North 326 375 16,100 -120 Level Washington Center
06:25AM 38.3344 -77.1217 340° North 326 375 15,900 -720 Descending Washington Center
06:26AM 38.4181 -77.0994 12° North 307 353 14,700 -1,620 Descending Washington Center
06:27AM 38.4900 -77.0108 44° Northeast 316 364 12,700 -1,560 Descending Washington Center
06:28AM 38.5600 -76.9244 44° Northeast 328 377 11,600 -1,140 Descending Washington Center
06:29AM 38.6256 -76.8406 45° Northeast 333 383 10,500 -1,080 Descending Washington Center
06:30AM 38.6886 -76.7672 42° Northeast 319 367 9,500 -1,080 Descending Washington Center
06:31AM 38.7333 -76.6800 57° Northeast 305 351 8,400 -1,320 Descending Washington Center
06:32AM 38.7833 -76.5667 60° Northeast 287 330 6,700 -1,080 Descending Potomac TRACON
06:33AM 38.8333 -76.5500 15° North 246 283 6,100 -1,020 Descending Potomac TRACON
06:34AM 38.9000 -76.5500 360° North 252 290 4,900 -1,440 Descending Potomac TRACON
06:35AM 38.9667 -76.5667 349° North 244 281 3,600 -1,080 Descending Potomac TRACON
06:36AM 39.0167 -76.5833 345° North 209 241 2,800 -840 Descending Potomac TRACON
06:37AM 39.0833 -76.5833 360° North 176 203 2,000 -660 Descending Potomac TRACON
06:38AM 39.1167 -76.6167 322° Northwest 120 138 1,500 -600 Descending Potomac TRACON
06:39AM 39.1333 -76.6333 322° Northwest 110 127 900 -600 Descending Potomac TRACON
06:41AM 39.1667 -76.6667 339° North  Level FlightAware Approximate
06:48AM 39.1754 -76.6683 339° North  Level Estimated
06:49AM 39.1754 -76.6683 339° North  Level Estimated
06:50AM 39.1754 -76.6683 339° North  Level Estimated
06:51AM 39.1754 -76.6683 339° North  Level Estimated